createdAt,value
2023-05-07T00:02:18.757Z,10.56
2023-05-07T00:04:46.611Z,10.38
2023-05-07T00:07:13.634Z,10.53
2023-05-07T00:09:41.186Z,10.47
2023-05-07T00:12:08.578Z,10.44
2023-05-07T00:14:35.769Z,10.42
2023-05-07T00:17:02.760Z,10.33
2023-05-07T00:19:29.908Z,10.42
2023-05-07T00:21:57.426Z,10.22
2023-05-07T00:24:24.462Z,10.32
2023-05-07T00:26:51.297Z,10.29
2023-05-07T00:29:18.209Z,10.27
2023-05-07T00:31:45.306Z,10.23
2023-05-07T00:34:12.329Z,10.14
2023-05-07T00:36:39.202Z,9.96
2023-05-07T00:39:06.397Z,9.86
2023-05-07T00:41:33.320Z,10.01
2023-05-07T00:44:00.313Z,10.01
2023-05-07T00:46:27.456Z,9.92
2023-05-07T00:48:55.377Z,9.88
2023-05-07T00:51:22.488Z,9.87
2023-05-07T00:53:49.737Z,9.83
2023-05-07T00:56:17.107Z,9.82
2023-05-07T00:58:44.423Z,9.77
2023-05-07T01:01:11.576Z,9.72
2023-05-07T01:03:38.592Z,9.68
2023-05-07T01:06:08.610Z,9.62
2023-05-07T01:08:36.674Z,9.60
2023-05-07T01:11:04.838Z,9.46
2023-05-07T01:13:32.496Z,9.41
2023-05-07T01:15:59.816Z,9.52
2023-05-07T01:18:27.777Z,9.49
2023-05-07T01:20:57.007Z,9.42
2023-05-07T01:23:24.198Z,9.36
2023-05-07T01:25:54.829Z,9.36
2023-05-07T01:28:23.887Z,9.33
2023-05-07T01:31:02.663Z,9.35
2023-05-07T01:33:32.889Z,9.35
2023-05-07T01:36:03.385Z,9.22
2023-05-07T01:38:31.251Z,9.25
2023-05-07T01:40:59.281Z,9.30
2023-05-07T01:43:26.559Z,9.30
2023-05-07T01:45:54.180Z,9.27
2023-05-07T01:48:21.801Z,9.03
2023-05-07T01:50:49.694Z,9.09
2023-05-07T01:53:17.402Z,9.12
2023-05-07T01:55:44.494Z,9.16
2023-05-07T01:58:12.010Z,9.15
2023-05-07T02:00:39.165Z,9.04
2023-05-07T02:03:07.967Z,9.00
2023-05-07T02:05:55.258Z,8.78
2023-05-07T02:08:34.697Z,8.92
2023-05-07T02:11:02.597Z,8.94
2023-05-07T02:13:34.000Z,8.92
2023-05-07T02:16:01.947Z,8.87
2023-05-07T02:18:28.951Z,8.69
2023-05-07T02:20:55.998Z,8.62
2023-05-07T02:23:22.980Z,8.57
2023-05-07T02:25:50.440Z,8.51
2023-05-07T02:28:18.163Z,8.61
2023-05-07T02:30:52.096Z,8.59
2023-05-07T02:33:19.883Z,8.60
2023-05-07T02:35:47.235Z,8.47
2023-05-07T02:38:15.976Z,8.61
2023-05-07T02:40:43.989Z,8.59
2023-05-07T02:43:11.065Z,8.59
2023-05-07T02:45:39.017Z,8.59
2023-05-07T02:48:08.317Z,8.65
2023-05-07T02:50:35.465Z,8.69
2023-05-07T02:53:02.519Z,8.74
2023-05-07T02:55:29.817Z,8.74
2023-05-07T02:57:56.930Z,8.69
2023-05-07T03:00:25.557Z,8.64
2023-05-07T03:03:18.815Z,8.78
2023-05-07T03:05:45.833Z,8.73
2023-05-07T03:08:12.723Z,8.69
2023-05-07T03:10:40.320Z,8.76
2023-05-07T03:13:07.516Z,8.76
2023-05-07T03:15:34.745Z,8.69
2023-05-07T03:18:02.268Z,8.80
2023-05-07T03:20:29.271Z,8.61
2023-05-07T03:22:56.763Z,8.89
2023-05-07T03:25:23.616Z,8.76
2023-05-07T03:27:50.605Z,8.82
2023-05-07T03:30:21.216Z,8.88
2023-05-07T03:32:48.075Z,8.88
2023-05-07T03:35:15.257Z,8.89
2023-05-07T03:37:42.581Z,8.76
2023-05-07T03:40:13.524Z,8.82
2023-05-07T03:42:48.139Z,8.65
2023-05-07T03:45:16.848Z,8.61
2023-05-07T03:47:48.645Z,8.63
2023-05-07T03:50:18.885Z,8.65
2023-05-07T03:52:46.355Z,8.54
2023-05-07T03:55:15.285Z,8.70
2023-05-07T03:57:48.910Z,8.76
2023-05-07T04:00:16.090Z,8.87
2023-05-07T04:02:49.090Z,8.94
2023-05-07T04:05:22.447Z,8.96
2023-05-07T04:07:52.687Z,9.08
2023-05-07T04:10:25.728Z,9.12
2023-05-07T04:12:55.972Z,9.20
2023-05-07T04:15:24.747Z,9.26
2023-05-07T04:17:51.904Z,9.32
2023-05-07T04:20:21.594Z,9.39
2023-05-07T04:22:54.986Z,9.46
2023-05-07T04:25:21.955Z,9.64
2023-05-07T04:27:50.138Z,9.68
2023-05-07T04:30:18.111Z,9.84
2023-05-07T04:32:45.614Z,9.97
2023-05-07T04:35:12.990Z,10.18
2023-05-07T04:37:40.086Z,10.32
2023-05-07T04:40:08.582Z,10.41
2023-05-07T04:42:35.926Z,10.50
2023-05-07T04:45:04.176Z,10.51
2023-05-07T04:47:33.570Z,10.63
2023-05-07T04:50:02.673Z,10.62
2023-05-07T04:52:29.566Z,10.86
2023-05-07T04:54:56.972Z,10.89
2023-05-07T04:57:24.128Z,10.91
2023-05-07T04:59:51.259Z,10.95
2023-05-07T05:02:20.160Z,11.03
2023-05-07T05:04:48.148Z,11.18
2023-05-07T05:07:15.469Z,11.40
2023-05-07T05:09:42.568Z,11.43
2023-05-07T05:12:10.447Z,11.53
2023-05-07T05:14:38.849Z,11.87
2023-05-07T05:17:07.057Z,12.01
2023-05-07T05:19:37.462Z,12.15
2023-05-07T05:22:05.013Z,12.28
2023-05-07T05:24:32.508Z,12.38
2023-05-07T05:29:55.649Z,12.65
2023-05-07T05:32:23.859Z,12.88
2023-05-07T05:35:26.597Z,13.05
2023-05-07T05:37:53.797Z,12.97
2023-05-07T05:40:21.584Z,13.25
2023-05-07T05:42:48.590Z,13.35
2023-05-07T05:45:17.588Z,13.35
2023-05-07T05:47:45.790Z,13.61
2023-05-07T05:50:13.173Z,13.76
2023-05-07T05:52:41.873Z,13.91
2023-05-07T05:55:09.999Z,14.22
2023-05-07T05:57:38.419Z,14.31
2023-05-07T06:00:06.345Z,14.43
2023-05-07T06:02:46.064Z,14.70
2023-05-07T06:05:18.899Z,14.84
2023-05-07T06:07:47.783Z,15.04
2023-05-07T06:10:15.757Z,15.18
2023-05-07T06:12:43.069Z,15.31
2023-05-07T06:15:10.878Z,15.47
2023-05-07T06:17:38.578Z,15.38
2023-05-07T06:20:07.670Z,15.65
2023-05-07T06:22:34.490Z,15.85
2023-05-07T06:25:01.578Z,16.03
2023-05-07T06:27:29.199Z,16.17
2023-05-07T06:29:57.709Z,16.33
2023-05-07T06:32:24.662Z,16.39
2023-05-07T06:34:52.342Z,16.51
2023-05-07T06:37:19.821Z,16.59
2023-05-07T06:39:54.394Z,16.82
2023-05-07T06:42:21.482Z,16.86
2023-05-07T06:44:50.654Z,17.12
2023-05-07T06:47:18.719Z,17.23
2023-05-07T06:49:50.500Z,17.33
2023-05-07T06:52:19.548Z,17.36
2023-05-07T06:54:48.548Z,17.51
2023-05-07T06:57:17.547Z,17.61
2023-05-07T06:59:44.733Z,17.54
2023-05-07T07:02:12.448Z,17.55
2023-05-07T07:04:39.818Z,17.59
2023-05-07T07:07:10.364Z,17.76
2023-05-07T07:09:37.388Z,17.88
2023-05-07T07:12:06.119Z,17.95
2023-05-07T07:14:34.090Z,18.06
2023-05-07T07:17:01.335Z,18.25
2023-05-07T07:19:28.525Z,18.35
2023-05-07T07:21:56.631Z,18.41
2023-05-07T07:24:23.546Z,18.41
2023-05-07T07:26:56.538Z,18.59
2023-05-07T07:29:27.638Z,18.50
2023-05-07T07:31:55.197Z,18.56
2023-05-07T07:34:22.439Z,18.68
2023-05-07T07:36:50.502Z,18.77
2023-05-07T07:39:19.138Z,18.85
2023-05-07T07:41:48.842Z,18.75
2023-05-07T07:44:16.865Z,18.86
2023-05-07T07:46:48.596Z,19.04
2023-05-07T07:49:16.133Z,19.24
2023-05-07T07:51:44.343Z,19.25
2023-05-07T07:54:12.879Z,19.45
2023-05-07T07:56:41.222Z,19.58
2023-05-07T07:59:09.475Z,19.71
2023-05-07T08:01:39.249Z,19.79
2023-05-07T08:04:07.010Z,19.78
2023-05-07T08:06:38.941Z,19.87
2023-05-07T08:09:06.451Z,19.85
2023-05-07T08:11:33.936Z,19.93
2023-05-07T08:14:03.412Z,19.88
2023-05-07T08:16:31.254Z,19.82
2023-05-07T08:19:00.031Z,19.87
2023-05-07T08:21:27.590Z,19.91
2023-05-07T08:23:55.047Z,19.97
2023-05-07T08:26:22.087Z,20.07
2023-05-07T08:28:49.183Z,20.05
2023-05-07T08:31:16.264Z,20.06
2023-05-07T08:33:45.143Z,19.99
2023-05-07T08:36:12.120Z,20.00
2023-05-07T08:38:41.928Z,20.10
2023-05-07T08:41:11.459Z,20.13
2023-05-07T08:43:42.558Z,20.13
2023-05-07T08:46:12.463Z,20.34
2023-05-07T08:48:43.158Z,20.35
2023-05-07T08:52:09.773Z,20.34
2023-05-07T08:54:30.639Z,20.37
2023-05-07T08:56:58.435Z,20.53
2023-05-07T08:59:25.755Z,20.58
2023-05-07T09:01:53.206Z,20.56
2023-05-07T09:04:20.426Z,20.50
2023-05-07T09:06:49.125Z,20.43
2023-05-07T09:09:19.079Z,20.51
2023-05-07T09:11:46.086Z,20.53
2023-05-07T09:14:15.608Z,20.51
2023-05-07T09:16:44.819Z,20.60
2023-05-07T09:19:12.519Z,20.52
2023-05-07T09:21:44.252Z,20.70
2023-05-07T09:24:12.562Z,20.76
2023-05-07T09:26:42.320Z,20.71
2023-05-07T09:29:11.535Z,20.73
2023-05-07T09:31:39.704Z,20.66
2023-05-07T09:34:09.322Z,20.76
2023-05-07T09:36:39.728Z,20.65
2023-05-07T09:39:10.244Z,20.75
2023-05-07T09:41:45.189Z,20.83
2023-05-07T09:44:18.699Z,20.86
2023-05-07T09:46:55.009Z,20.96
2023-05-07T09:49:33.925Z,20.97
2023-05-07T09:52:07.542Z,21.00
2023-05-07T09:54:38.889Z,21.11
2023-05-07T09:57:08.603Z,21.09
2023-05-07T09:59:37.948Z,21.05
2023-05-07T10:02:11.481Z,21.16
2023-05-07T10:04:47.305Z,21.17
2023-05-07T10:07:17.688Z,21.31
2023-05-07T10:09:49.167Z,21.38
2023-05-07T10:12:25.432Z,21.33
2023-05-07T10:14:55.657Z,21.29
2023-05-07T10:17:24.537Z,21.26
2023-05-07T10:19:54.324Z,21.29
2023-05-07T10:22:23.469Z,21.28
2023-05-07T10:24:54.195Z,21.27
2023-05-07T10:27:23.659Z,21.04
2023-05-07T10:30:22.051Z,21.27
2023-05-07T10:32:56.407Z,21.33
2023-05-07T10:35:33.888Z,21.41
2023-05-07T10:38:05.070Z,21.52
2023-05-07T10:40:34.637Z,21.49
2023-05-07T10:43:07.764Z,21.54
2023-05-07T10:45:45.449Z,21.35
2023-05-07T10:48:29.819Z,21.45
2023-05-07T10:51:24.818Z,21.56
2023-05-07T10:54:12.309Z,21.60
2023-05-07T10:56:48.836Z,21.46
2023-05-07T10:59:21.139Z,21.51
2023-05-07T11:02:00.145Z,21.63
2023-05-07T11:05:22.286Z,21.51
2023-05-07T11:08:15.493Z,21.67
2023-05-07T11:11:11.725Z,21.81
2023-05-07T11:13:51.612Z,21.73
2023-05-07T11:16:28.766Z,21.80
2023-05-07T11:19:15.349Z,21.84
2023-05-07T11:21:47.281Z,21.93
2023-05-07T11:24:41.973Z,22.06
2023-05-07T11:27:09.732Z,21.83
2023-05-07T11:29:37.552Z,22.03
2023-05-07T11:32:11.552Z,22.11
2023-05-07T11:34:46.627Z,22.13
2023-05-07T11:37:18.562Z,22.16
2023-05-07T11:40:05.150Z,22.15
2023-05-07T11:42:34.859Z,22.20
2023-05-07T11:45:02.667Z,22.20
2023-05-07T11:47:32.368Z,22.32
2023-05-07T11:50:05.288Z,22.30
2023-05-07T11:52:32.218Z,22.37
2023-05-07T11:55:01.262Z,22.53
2023-05-07T11:57:28.919Z,22.54
2023-05-07T12:00:00.871Z,22.48
2023-05-07T12:02:28.025Z,22.45
2023-05-07T12:04:58.851Z,22.28
2023-05-07T12:07:26.165Z,22.37
2023-05-07T12:09:53.253Z,22.39
2023-05-07T12:12:20.364Z,22.41
2023-05-07T12:14:47.924Z,22.32
2023-05-07T12:17:15.913Z,22.35
2023-05-07T12:19:44.711Z,22.29
2023-05-07T12:22:12.051Z,22.57
2023-05-07T12:24:49.852Z,22.61
2023-05-07T12:27:18.437Z,22.73
2023-05-07T12:29:50.747Z,22.68
2023-05-07T12:32:19.417Z,22.78
2023-05-07T12:34:47.152Z,22.76
2023-05-07T12:37:14.423Z,22.87
2023-05-07T12:40:04.663Z,22.81
2023-05-07T12:42:37.645Z,22.94
2023-05-07T12:45:17.515Z,22.97
2023-05-07T12:47:46.348Z,23.02
2023-05-07T12:50:15.316Z,23.10
2023-05-07T12:52:43.896Z,23.23
2023-05-07T12:55:14.972Z,23.02
2023-05-07T12:57:44.238Z,22.88
2023-05-07T13:00:12.012Z,22.80
2023-05-07T13:02:41.526Z,22.72
2023-05-07T13:05:10.043Z,22.67
2023-05-07T13:07:38.151Z,22.51
2023-05-07T13:10:06.185Z,22.51
2023-05-07T13:12:33.730Z,22.52
2023-05-07T13:15:00.657Z,22.50
2023-05-07T13:17:27.668Z,22.32
2023-05-07T13:19:54.723Z,22.41
2023-05-07T13:22:21.738Z,22.52
2023-05-07T13:24:48.659Z,22.63
2023-05-07T13:27:16.645Z,22.68
2023-05-07T13:29:43.618Z,22.66
2023-05-07T13:32:10.710Z,22.74
2023-05-07T13:34:38.272Z,22.66
2023-05-07T13:37:05.328Z,22.66
2023-05-07T13:39:32.664Z,22.77
2023-05-07T13:41:59.491Z,22.70
2023-05-07T13:44:27.065Z,22.74
2023-05-07T13:46:54.100Z,22.67
2023-05-07T13:49:21.094Z,22.77
2023-05-07T13:51:47.917Z,22.77
2023-05-07T13:54:14.906Z,22.96
2023-05-07T13:56:41.873Z,23.08
2023-05-07T13:59:09.399Z,23.13
2023-05-07T14:01:36.724Z,23.21
2023-05-07T14:04:03.801Z,23.10
2023-05-07T14:06:30.899Z,23.14
2023-05-07T14:08:59.136Z,23.14
2023-05-07T14:11:26.644Z,23.13
2023-05-07T14:13:53.428Z,23.13
2023-05-07T14:16:20.461Z,23.13
2023-05-07T14:18:47.401Z,23.15
2023-05-07T14:21:15.098Z,23.31
2023-05-07T14:23:42.088Z,23.35
2023-05-07T14:26:08.908Z,23.28
2023-05-07T14:28:36.047Z,23.33
2023-05-07T14:31:02.939Z,23.35
2023-05-07T14:33:30.137Z,23.40
2023-05-07T14:35:56.889Z,23.49
2023-05-07T14:38:23.920Z,23.47
2023-05-07T14:40:50.722Z,23.48
2023-05-07T14:43:17.788Z,23.51
2023-05-07T14:45:44.546Z,23.53
2023-05-07T14:48:16.169Z,23.48
2023-05-07T14:50:43.672Z,23.52
2023-05-07T14:53:10.713Z,23.43
2023-05-07T14:55:37.514Z,23.50
2023-05-07T14:58:04.979Z,23.45
2023-05-07T15:00:31.989Z,23.40
2023-05-07T15:03:11.320Z,23.26
2023-05-07T15:05:42.546Z,23.25
2023-05-07T15:08:09.495Z,23.23
2023-05-07T15:10:41.872Z,23.23
2023-05-07T15:13:12.663Z,23.11
2023-05-07T15:15:43.078Z,23.12
2023-05-07T15:18:10.360Z,23.10
2023-05-07T15:20:38.486Z,23.14
2023-05-07T15:23:07.471Z,23.06
2023-05-07T15:25:34.990Z,23.10
2023-05-07T15:28:02.084Z,23.01
2023-05-07T15:30:29.146Z,23.00
2023-05-07T15:32:56.932Z,22.99
2023-05-07T15:35:24.401Z,22.92
2023-05-07T15:37:51.303Z,22.99
2023-05-07T15:40:19.256Z,22.98
2023-05-07T15:42:46.612Z,23.00
2023-05-07T15:45:14.107Z,22.96
2023-05-07T15:47:41.654Z,23.15
2023-05-07T15:50:09.032Z,23.53
2023-05-07T15:52:36.187Z,23.92
2023-05-07T15:55:03.689Z,24.54
2023-05-07T15:57:30.912Z,24.96
2023-05-07T15:59:57.892Z,25.30
2023-05-07T16:02:25.166Z,25.78
2023-05-07T16:04:54.423Z,25.97
2023-05-07T16:10:42.784Z,25.86
2023-05-07T16:13:09.860Z,25.96
2023-05-07T16:15:36.788Z,25.98
2023-05-07T16:18:04.553Z,25.80
2023-05-07T16:20:31.642Z,25.12
2023-05-07T16:22:59.163Z,24.81
2023-05-07T16:25:26.076Z,24.49
2023-05-07T16:27:54.428Z,24.30
2023-05-07T16:30:21.374Z,23.99
2023-05-07T16:32:48.408Z,23.65
2023-05-07T16:35:15.463Z,23.34
2023-05-07T16:38:01.161Z,22.93
2023-05-07T16:40:28.192Z,22.75
2023-05-07T16:42:55.738Z,22.57
2023-05-07T16:45:24.795Z,22.33
2023-05-07T16:47:51.917Z,22.13
2023-05-07T16:50:18.837Z,21.90
2023-05-07T16:52:45.937Z,21.61
2023-05-07T16:55:13.243Z,21.57
2023-05-07T16:57:40.357Z,21.35
2023-05-07T17:00:08.150Z,21.21
2023-05-07T17:02:35.779Z,21.05
2023-05-07T17:05:06.443Z,20.92
2023-05-07T17:07:33.512Z,20.76
2023-05-07T17:10:00.568Z,20.59
2023-05-07T17:12:43.083Z,20.50
2023-05-07T17:18:26.536Z,20.18
2023-05-07T17:20:53.479Z,20.10
2023-05-07T17:21:15.581Z,20.40
2023-05-07T17:23:20.394Z,19.96
2023-05-07T17:25:51.472Z,19.85
2023-05-07T17:28:18.903Z,19.79
2023-05-07T17:30:46.691Z,19.73
2023-05-07T17:33:21.139Z,19.63
2023-05-07T17:35:49.639Z,19.60
2023-05-07T17:38:16.556Z,19.49
2023-05-07T17:40:43.553Z,19.30
2023-05-07T17:43:10.528Z,19.11
2023-05-07T17:45:37.535Z,19.09
2023-05-07T17:48:05.205Z,19.02
2023-05-07T17:50:32.249Z,18.88
2023-05-07T17:52:59.355Z,18.84
2023-05-07T17:55:27.620Z,18.72
2023-05-07T17:57:56.590Z,18.63
2023-05-07T18:00:23.707Z,18.54
2023-05-07T18:02:53.554Z,18.44
2023-05-07T18:05:20.709Z,18.38
2023-05-07T18:07:47.561Z,18.30
2023-05-07T18:10:14.757Z,18.23
2023-05-07T18:12:41.898Z,18.06
2023-05-07T18:15:09.873Z,18.00
2023-05-07T18:17:37.289Z,17.87
2023-05-07T18:20:11.997Z,17.77
2023-05-07T18:22:39.452Z,17.68
2023-05-07T18:25:07.050Z,17.62
2023-05-07T18:27:34.038Z,17.59
2023-05-07T18:30:01.242Z,17.59
2023-05-07T18:32:28.293Z,17.55
2023-05-07T18:34:56.343Z,17.48
2023-05-07T18:37:26.117Z,17.49
2023-05-07T18:39:53.791Z,17.39
2023-05-07T18:42:20.983Z,17.19
2023-05-07T18:44:47.789Z,17.25
2023-05-07T18:47:14.732Z,17.23
2023-05-07T18:49:45.264Z,17.16
2023-05-07T18:52:12.048Z,17.05
2023-05-07T18:54:39.114Z,16.98
2023-05-07T18:57:06.000Z,16.94
2023-05-07T18:59:33.059Z,16.80
2023-05-07T19:02:00.109Z,16.91
2023-05-07T19:04:27.233Z,16.74
2023-05-07T19:06:54.739Z,16.52
2023-05-07T19:09:23.692Z,16.45
2023-05-07T19:11:50.722Z,16.42
2023-05-07T19:14:17.751Z,16.38
2023-05-07T19:16:44.937Z,16.38
2023-05-07T19:19:11.860Z,16.33
2023-05-07T19:21:38.686Z,16.21
2023-05-07T19:24:05.987Z,16.21
2023-05-07T19:26:32.940Z,16.18
2023-05-07T19:29:17.500Z,16.18
2023-05-07T19:31:46.244Z,16.22
2023-05-07T19:34:15.979Z,16.15
2023-05-07T19:36:52.276Z,16.07
2023-05-07T19:39:43.718Z,16.03
2023-05-07T19:42:10.789Z,16.03
2023-05-07T19:44:37.723Z,15.92
2023-05-07T19:47:05.887Z,15.95
2023-05-07T19:49:32.757Z,15.93
2023-05-07T19:51:59.637Z,15.95
2023-05-07T19:54:26.636Z,15.90
2023-05-07T19:56:59.581Z,15.89
2023-05-07T19:59:27.508Z,15.91
2023-05-07T20:01:57.488Z,15.76
2023-05-07T20:04:32.406Z,15.76
2023-05-07T20:06:59.850Z,15.69
2023-05-07T20:09:26.718Z,15.55
2023-05-07T20:11:53.554Z,15.37
2023-05-07T20:14:20.641Z,15.37
2023-05-07T20:16:47.865Z,15.33
2023-05-07T20:19:14.938Z,15.29
2023-05-07T20:21:42.796Z,15.30
2023-05-07T20:24:29.193Z,15.26
2023-05-07T20:26:56.200Z,15.22
2023-05-07T20:29:23.981Z,15.16
2023-05-07T20:32:27.009Z,14.73
2023-05-07T20:35:37.263Z,14.82
2023-05-07T20:38:05.174Z,14.83
2023-05-07T20:40:34.486Z,14.82
2023-05-07T20:43:03.743Z,14.77
2023-05-07T20:48:36.912Z,14.57
2023-05-07T20:51:04.018Z,14.46
2023-05-07T20:51:38.144Z,14.64
2023-05-07T20:53:34.498Z,14.40
2023-05-07T20:56:23.991Z,14.22
2023-05-07T20:59:26.763Z,14.22
2023-05-07T21:01:59.604Z,14.07
2023-05-07T21:04:26.620Z,14.11
2023-05-07T21:06:53.595Z,13.99
2023-05-07T21:09:20.640Z,13.95
2023-05-07T21:11:47.918Z,13.86
2023-05-07T21:14:14.941Z,13.85
2023-05-07T21:16:43.223Z,13.77
2023-05-07T21:19:10.920Z,13.74
2023-05-07T21:21:37.834Z,13.73
2023-05-07T21:24:05.903Z,13.65
2023-05-07T21:26:33.075Z,13.56
2023-05-07T21:28:59.928Z,13.60
2023-05-07T21:31:26.900Z,13.58
2023-05-07T21:33:54.142Z,13.56
2023-05-07T21:36:20.974Z,13.42
2023-05-07T21:38:50.469Z,13.23
2023-05-07T21:41:17.354Z,13.05
2023-05-07T21:43:44.542Z,12.95
2023-05-07T21:46:11.503Z,12.91
2023-05-07T21:48:38.867Z,12.81
2023-05-07T21:51:07.440Z,12.84
2023-05-07T21:53:35.320Z,12.81
2023-05-07T21:56:03.029Z,12.77
2023-05-07T21:58:31.145Z,12.61
2023-05-07T22:00:58.773Z,12.59
2023-05-07T22:03:25.744Z,12.46
2023-05-07T22:05:52.905Z,12.34
2023-05-07T22:08:19.988Z,12.29
2023-05-07T22:10:46.849Z,12.19
2023-05-07T22:13:13.871Z,12.29
2023-05-07T22:15:49.565Z,12.21
2023-05-07T22:18:23.563Z,12.10
2023-05-07T22:20:53.487Z,12.06
2023-05-07T22:23:20.694Z,12.02
2023-05-07T22:25:47.733Z,12.01
2023-05-07T22:28:14.617Z,11.97
2023-05-07T22:30:41.759Z,11.95
2023-05-07T22:33:08.981Z,11.86
2023-05-07T22:35:35.871Z,11.76
2023-05-07T22:38:02.969Z,11.59
2023-05-07T22:40:30.197Z,11.70
2023-05-07T22:42:57.331Z,11.72
2023-05-07T22:45:24.182Z,11.66
2023-05-07T22:47:51.356Z,11.65
2023-05-07T22:50:18.424Z,11.75
2023-05-07T22:52:45.256Z,11.74
2023-05-07T22:55:12.127Z,11.63
2023-05-07T22:57:39.219Z,11.65
2023-05-07T23:00:06.887Z,11.65
2023-05-07T23:02:34.067Z,11.60
2023-05-07T23:05:01.719Z,11.62
2023-05-07T23:07:28.755Z,11.60
2023-05-07T23:09:55.931Z,11.51
2023-05-07T23:12:23.013Z,11.55
2023-05-07T23:14:49.893Z,11.53
2023-05-07T23:17:17.073Z,11.51
2023-05-07T23:19:44.033Z,11.42
2023-05-07T23:22:11.112Z,11.31
2023-05-07T23:24:38.265Z,11.45
2023-05-07T23:27:08.687Z,11.47
2023-05-07T23:29:35.743Z,11.39
2023-05-07T23:32:02.851Z,11.40
2023-05-07T23:34:29.816Z,11.25
2023-05-07T23:36:57.948Z,11.15
2023-05-07T23:39:25.036Z,11.24
2023-05-07T23:41:52.008Z,11.16
2023-05-07T23:44:19.134Z,11.16
2023-05-07T23:46:46.393Z,11.23
2023-05-07T23:49:13.667Z,11.12
2023-05-07T23:51:40.569Z,10.95
2023-05-07T23:54:07.542Z,11.03
2023-05-07T23:56:34.487Z,10.97
2023-05-07T23:59:01.426Z,10.91
